createdAt,value
2022-10-03T00:01:19.196Z,10.88
2022-10-03T00:03:54.671Z,10.84
2022-10-03T00:06:33.002Z,10.85
2022-10-03T00:09:28.407Z,10.78
2022-10-03T00:12:06.959Z,10.90
2022-10-03T00:14:53.052Z,10.82
2022-10-03T00:17:46.435Z,10.69
2022-10-03T00:20:37.279Z,10.85
2022-10-03T00:23:18.936Z,10.74
2022-10-03T00:25:57.183Z,10.69
2022-10-03T00:29:03.893Z,10.72
2022-10-03T00:31:43.552Z,10.71
2022-10-03T00:34:28.093Z,10.70
2022-10-03T00:37:05.380Z,10.65
2022-10-03T00:39:55.362Z,10.63
2022-10-03T00:42:28.146Z,10.71
2022-10-03T00:45:33.975Z,10.71
2022-10-03T00:48:29.275Z,10.65
2022-10-03T00:51:13.499Z,10.58
2022-10-03T00:54:07.539Z,10.58
2022-10-03T00:57:05.597Z,10.58
2022-10-03T00:59:43.307Z,10.58
2022-10-03T01:02:36.194Z,10.55
2022-10-03T01:05:26.192Z,10.52
2022-10-03T01:08:33.246Z,10.48
2022-10-03T01:11:14.972Z,10.42
2022-10-03T01:14:04.410Z,10.38
2022-10-03T01:17:01.120Z,10.42
2022-10-03T01:19:51.668Z,10.35
2022-10-03T01:22:58.900Z,10.34
2022-10-03T01:29:09.396Z,10.33
2022-10-03T01:31:50.677Z,10.22
2022-10-03T01:34:25.904Z,10.18
2022-10-03T01:37:07.150Z,10.15
2022-10-03T01:39:39.933Z,10.16
2022-10-03T01:42:20.722Z,10.10
2022-10-03T01:45:05.957Z,10.10
2022-10-03T01:47:45.815Z,10.20
2022-10-03T01:50:21.153Z,10.09
2022-10-03T01:52:59.764Z,10.00
2022-10-03T01:55:51.936Z,10.02
2022-10-03T01:58:27.411Z,10.06
2022-10-03T02:01:11.831Z,10.09
2022-10-03T02:04:01.367Z,10.09
2022-10-03T02:06:53.629Z,10.02
2022-10-03T02:09:32.838Z,10.18
2022-10-03T02:12:17.697Z,10.05
2022-10-03T02:15:21.674Z,10.01
2022-10-03T02:18:00.420Z,10.02
2022-10-03T02:20:50.585Z,10.06
2022-10-03T02:23:36.193Z,10.02
2022-10-03T02:26:33.919Z,9.87
2022-10-03T02:29:33.384Z,9.87
2022-10-03T02:32:27.310Z,9.77
2022-10-03T02:35:23.866Z,9.82
2022-10-03T02:38:11.319Z,9.90
2022-10-03T02:40:48.247Z,9.86
2022-10-03T02:43:40.246Z,9.83
2022-10-03T02:46:47.672Z,9.81
2022-10-03T02:49:20.448Z,9.81
2022-10-03T02:52:10.896Z,9.77
2022-10-03T02:54:43.687Z,9.71
2022-10-03T02:57:37.050Z,9.74
2022-10-03T03:00:42.514Z,9.71
2022-10-03T03:03:30.083Z,9.71
2022-10-03T03:06:30.980Z,9.78
2022-10-03T03:09:03.749Z,9.71
2022-10-03T03:11:54.262Z,9.69
2022-10-03T03:14:50.872Z,9.68
2022-10-03T03:17:33.577Z,9.66
2022-10-03T03:20:18.342Z,9.68
2022-10-03T03:23:16.615Z,9.68
2022-10-03T03:26:03.678Z,9.63
2022-10-03T03:28:50.593Z,9.52
2022-10-03T03:31:29.720Z,9.68
2022-10-03T03:34:25.477Z,9.56
2022-10-03T03:37:07.243Z,9.56
2022-10-03T03:39:42.633Z,9.54
2022-10-03T03:42:45.059Z,9.47
2022-10-03T03:45:42.932Z,9.50
2022-10-03T03:48:25.337Z,9.44
2022-10-03T03:51:11.524Z,9.47
2022-10-03T03:54:19.433Z,9.50
2022-10-03T03:57:15.998Z,9.42
2022-10-03T04:00:06.368Z,9.37
2022-10-03T04:02:55.428Z,9.36
2022-10-03T04:05:47.077Z,9.45
2022-10-03T04:08:25.906Z,9.27
2022-10-03T04:11:19.053Z,9.43
2022-10-03T04:14:24.769Z,9.25
2022-10-03T04:17:23.590Z,9.41
2022-10-03T04:20:01.978Z,9.27
2022-10-03T04:22:46.632Z,9.35
2022-10-03T04:25:44.581Z,9.35
2022-10-03T04:28:38.493Z,9.23
2022-10-03T04:31:29.136Z,9.17
2022-10-03T04:34:25.317Z,9.13
2022-10-03T04:37:03.677Z,9.12
2022-10-03T04:39:48.042Z,9.10
2022-10-03T04:42:21.182Z,9.22
2022-10-03T04:44:53.957Z,8.97
2022-10-03T04:47:35.593Z,9.20
2022-10-03T04:50:15.659Z,9.05
2022-10-03T04:53:17.199Z,9.06
2022-10-03T04:55:55.462Z,9.03
2022-10-03T04:58:46.657Z,8.98
2022-10-03T05:01:25.571Z,8.96
2022-10-03T05:04:01.235Z,9.00
2022-10-03T05:06:52.973Z,8.95
2022-10-03T05:09:28.856Z,8.94
2022-10-03T05:12:10.289Z,8.98
2022-10-03T05:15:07.022Z,8.97
2022-10-03T05:17:45.537Z,8.99
2022-10-03T05:20:37.337Z,8.93
2022-10-03T05:23:10.110Z,8.87
2022-10-03T05:26:10.775Z,8.80
2022-10-03T05:28:38.848Z,8.87
2022-10-03T05:31:34.109Z,8.93
2022-10-03T05:34:24.480Z,8.88
2022-10-03T05:36:59.942Z,8.90
2022-10-03T05:39:57.926Z,8.94
2022-10-03T05:42:55.324Z,8.71
2022-10-03T05:45:31.684Z,8.67
2022-10-03T05:48:15.900Z,8.84
2022-10-03T05:51:06.356Z,8.79
2022-10-03T05:54:10.812Z,8.95
2022-10-03T05:56:59.604Z,8.89
2022-10-03T05:59:35.750Z,8.68
2022-10-03T06:02:39.995Z,8.77
2022-10-03T06:05:18.625Z,8.89
2022-10-03T06:08:06.487Z,9.01
2022-10-03T06:10:49.420Z,8.87
2022-10-03T06:13:47.735Z,8.81
2022-10-03T06:16:45.638Z,8.88
2022-10-03T06:19:27.170Z,8.97
2022-10-03T06:22:18.930Z,8.99
2022-10-03T06:25:11.327Z,8.83
2022-10-03T06:28:03.267Z,9.05
2022-10-03T06:30:47.590Z,9.05
2022-10-03T06:33:54.655Z,9.13
2022-10-03T06:36:52.007Z,9.33
2022-10-03T06:39:33.785Z,9.42
2022-10-03T06:42:24.428Z,9.59
2022-10-03T06:45:03.959Z,9.72
2022-10-03T06:47:55.666Z,9.72
2022-10-03T06:50:28.444Z,9.82
2022-10-03T06:53:12.934Z,10.08
2022-10-03T06:55:51.524Z,10.02
2022-10-03T06:58:29.887Z,10.16
2022-10-03T07:01:32.694Z,10.33
2022-10-03T07:04:05.481Z,10.51
2022-10-03T07:06:56.261Z,10.71
2022-10-03T07:09:46.978Z,10.94
2022-10-03T07:12:29.967Z,11.08
2022-10-03T07:15:18.745Z,11.36
2022-10-03T07:18:15.122Z,11.64
2022-10-03T07:21:20.835Z,11.75
2022-10-03T07:24:12.421Z,11.85
2022-10-03T07:26:51.105Z,12.12
2022-10-03T07:29:39.934Z,12.32
2022-10-03T07:32:25.742Z,12.36
2022-10-03T07:35:10.163Z,12.60
2022-10-03T07:38:20.141Z,12.73
2022-10-03T07:40:58.613Z,12.90
2022-10-03T07:43:31.213Z,13.12
2022-10-03T07:46:32.852Z,13.18
2022-10-03T07:49:24.916Z,13.27
2022-10-03T07:52:07.103Z,13.48
2022-10-03T07:55:04.971Z,13.68
2022-10-03T07:57:58.522Z,13.70
2022-10-03T08:00:31.659Z,13.86
2022-10-03T08:03:14.416Z,14.19
2022-10-03T08:05:50.206Z,13.97
2022-10-03T08:08:48.703Z,13.87
2022-10-03T08:11:24.342Z,14.18
2022-10-03T08:14:23.042Z,14.47
2022-10-03T08:17:14.809Z,14.38
2022-10-03T08:19:56.091Z,14.58
2022-10-03T08:22:44.068Z,14.94
2022-10-03T08:28:28.104Z,14.75
2022-10-03T08:31:21.154Z,14.46
2022-10-03T08:34:26.781Z,14.46
2022-10-03T08:37:16.960Z,14.67
2022-10-03T08:40:10.548Z,14.96
2022-10-03T08:42:49.455Z,15.17
2022-10-03T08:45:27.834Z,15.17
2022-10-03T08:48:12.552Z,15.18
2022-10-03T08:51:07.669Z,15.13
2022-10-03T08:53:56.366Z,15.33
2022-10-03T08:56:46.041Z,15.56
2022-10-03T08:59:40.858Z,15.86
2022-10-03T09:02:35.134Z,15.97
2022-10-03T09:05:19.484Z,15.97
2022-10-03T09:08:11.948Z,16.46
2022-10-03T09:11:06.329Z,16.75
2022-10-03T09:14:11.982Z,16.98
2022-10-03T09:16:48.147Z,17.56
2022-10-03T09:19:20.839Z,17.80
2022-10-03T09:25:11.376Z,17.62
2022-10-03T09:28:01.232Z,17.88
2022-10-03T09:31:02.544Z,17.82
2022-10-03T09:33:55.340Z,18.26
2022-10-03T09:36:33.772Z,18.35
2022-10-03T09:39:24.551Z,18.26
2022-10-03T09:42:13.479Z,18.46
2022-10-03T09:45:16.278Z,18.23
2022-10-03T09:48:05.522Z,18.09
2022-10-03T09:50:38.375Z,17.92
2022-10-03T09:53:31.580Z,18.17
2022-10-03T09:56:24.885Z,18.10
2022-10-03T09:59:30.616Z,18.27
2022-10-03T10:02:15.367Z,18.54
2022-10-03T10:05:21.280Z,18.49
2022-10-03T10:08:06.140Z,18.53
2022-10-03T10:11:07.278Z,18.49
2022-10-03T10:14:07.492Z,18.61
2022-10-03T10:17:09.228Z,18.83
2022-10-03T10:19:51.680Z,19.00
2022-10-03T10:22:27.113Z,19.21
2022-10-03T10:25:20.521Z,19.21
2022-10-03T10:28:14.537Z,19.32
2022-10-03T10:30:50.372Z,19.42
2022-10-03T10:33:45.090Z,19.72
2022-10-03T10:36:32.244Z,19.88
2022-10-03T10:39:38.021Z,19.58
2022-10-03T10:42:45.342Z,19.91
2022-10-03T10:45:50.536Z,19.53
2022-10-03T10:48:58.984Z,19.58
2022-10-03T10:51:42.259Z,19.42
2022-10-03T10:54:42.000Z,19.43
2022-10-03T10:57:17.206Z,20.13
2022-10-03T11:00:15.193Z,19.68
2022-10-03T11:03:20.841Z,19.60
2022-10-03T11:06:17.066Z,19.60
2022-10-03T11:09:12.246Z,19.82
2022-10-03T11:12:14.054Z,19.82
2022-10-03T11:14:52.569Z,19.58
2022-10-03T11:17:33.953Z,19.58
2022-10-03T11:20:39.540Z,19.16
2022-10-03T11:23:30.593Z,19.94
2022-10-03T11:26:25.474Z,20.32
2022-10-03T11:29:23.663Z,20.41
2022-10-03T11:32:18.503Z,20.11
2022-10-03T11:35:03.043Z,20.10
2022-10-03T11:37:38.634Z,19.77
2022-10-03T11:43:42.194Z,19.52
2022-10-03T11:46:43.907Z,19.30
2022-10-03T11:49:48.499Z,19.64
2022-10-03T11:52:35.788Z,19.88
2022-10-03T11:55:30.837Z,19.55
2022-10-03T11:58:24.429Z,20.13
2022-10-03T12:00:57.384Z,20.21
2022-10-03T12:03:33.123Z,20.66
2022-10-03T12:06:26.451Z,20.47
2022-10-03T12:09:14.149Z,20.56
2022-10-03T12:12:03.043Z,20.45
2022-10-03T12:14:38.360Z,20.51
2022-10-03T12:17:39.495Z,20.84
2022-10-03T12:20:27.921Z,20.84
2022-10-03T12:23:00.777Z,21.61
2022-10-03T12:25:36.715Z,20.68
2022-10-03T12:28:24.030Z,20.90
2022-10-03T12:31:00.744Z,21.24
2022-10-03T12:33:54.383Z,21.56
2022-10-03T12:36:35.482Z,20.72
2022-10-03T12:39:18.819Z,20.76
2022-10-03T12:42:06.612Z,20.74
2022-10-03T12:44:59.676Z,20.95
2022-10-03T12:47:56.543Z,20.64
2022-10-03T12:50:43.082Z,20.82
2022-10-03T12:53:22.003Z,21.26
2022-10-03T12:56:13.987Z,20.62
2022-10-03T12:59:01.260Z,20.72
2022-10-03T13:01:36.446Z,20.72
2022-10-03T13:04:20.019Z,20.94
2022-10-03T13:07:04.143Z,20.77
2022-10-03T13:09:50.403Z,20.85
2022-10-03T13:12:31.632Z,20.92
2022-10-03T13:15:20.881Z,21.35
2022-10-03T13:17:59.588Z,21.03
2022-10-03T13:20:39.183Z,21.22
2022-10-03T13:23:28.124Z,21.45
2022-10-03T13:26:07.524Z,21.45
2022-10-03T13:28:46.393Z,21.05
2022-10-03T13:31:27.649Z,21.05
2022-10-03T13:34:00.692Z,21.19
2022-10-03T13:36:45.853Z,21.18
2022-10-03T13:39:25.914Z,21.23
2022-10-03T13:42:08.265Z,21.16
2022-10-03T13:44:48.775Z,21.17
2022-10-03T13:47:30.612Z,21.45
2022-10-03T13:50:04.575Z,21.78
2022-10-03T13:52:39.670Z,21.78
2022-10-03T13:55:20.923Z,22.05
2022-10-03T13:57:59.769Z,21.65
2022-10-03T14:00:32.574Z,21.63
2022-10-03T14:03:11.267Z,22.25
2022-10-03T14:05:55.799Z,22.26
2022-10-03T14:08:28.611Z,21.60
2022-10-03T14:11:15.770Z,21.43
2022-10-03T14:13:57.061Z,21.15
2022-10-03T14:16:32.879Z,20.78
2022-10-03T14:19:05.685Z,20.62
2022-10-03T14:21:59.191Z,20.57
2022-10-03T14:24:36.977Z,20.59
2022-10-03T14:27:29.399Z,20.83
2022-10-03T14:30:11.145Z,20.45
2022-10-03T14:33:08.894Z,20.44
2022-10-03T14:35:47.367Z,20.60
2022-10-03T14:38:33.106Z,20.48
2022-10-03T14:41:06.059Z,20.41
2022-10-03T14:43:41.311Z,20.52
2022-10-03T14:46:11.607Z,20.12
2022-10-03T14:48:49.065Z,19.91
2022-10-03T14:51:27.776Z,20.05
2022-10-03T14:54:21.142Z,19.89
2022-10-03T14:56:54.619Z,19.77
2022-10-03T14:59:32.060Z,19.85
2022-10-03T15:02:04.652Z,19.66
2022-10-03T15:04:38.119Z,19.51
2022-10-03T15:07:08.790Z,19.51
2022-10-03T15:09:44.750Z,19.72
2022-10-03T15:12:29.013Z,19.60
2022-10-03T15:15:10.570Z,19.07
2022-10-03T15:17:52.122Z,19.65
2022-10-03T15:20:31.333Z,19.65
2022-10-03T15:23:02.746Z,19.58
2022-10-03T15:25:38.061Z,19.59
2022-10-03T15:31:00.718Z,19.69
2022-10-03T15:33:33.228Z,19.59
2022-10-03T15:36:12.151Z,19.57
2022-10-03T15:38:44.563Z,19.64
2022-10-03T15:41:17.108Z,19.60
2022-10-03T15:43:56.923Z,19.64
2022-10-03T15:46:44.518Z,19.51
2022-10-03T15:49:30.283Z,19.28
2022-10-03T15:52:03.310Z,19.18
2022-10-03T15:54:37.479Z,19.11
2022-10-03T15:57:08.870Z,19.16
2022-10-03T15:59:40.679Z,19.04
2022-10-03T16:02:14.659Z,18.92
2022-10-03T16:04:47.708Z,18.72
2022-10-03T16:07:38.543Z,18.83
2022-10-03T16:10:24.787Z,18.87
2022-10-03T16:13:03.958Z,18.80
2022-10-03T16:15:42.285Z,18.74
2022-10-03T16:18:20.988Z,18.71
2022-10-03T16:20:59.741Z,18.77
2022-10-03T16:23:36.572Z,18.79
2022-10-03T16:26:10.809Z,18.78
2022-10-03T16:28:52.142Z,18.70
2022-10-03T16:31:29.912Z,18.58
2022-10-03T16:34:02.738Z,18.40
2022-10-03T16:36:35.525Z,18.37
2022-10-03T16:39:06.821Z,18.35
2022-10-03T16:41:40.693Z,18.34
2022-10-03T16:44:38.436Z,18.25
2022-10-03T16:47:10.856Z,18.25
2022-10-03T16:50:07.252Z,18.21
2022-10-03T16:52:40.210Z,18.07
2022-10-03T16:55:15.503Z,18.06
2022-10-03T16:57:54.339Z,17.94
2022-10-03T17:00:36.025Z,17.48
2022-10-03T17:03:08.731Z,17.48
2022-10-03T17:05:41.472Z,17.46
2022-10-03T17:08:40.034Z,17.37
2022-10-03T17:10:48.188Z,17.33
2022-10-03T17:13:21.293Z,17.30
2022-10-03T17:15:54.007Z,17.16
2022-10-03T17:18:26.741Z,17.21
2022-10-03T17:21:11.506Z,16.99
2022-10-03T17:23:47.320Z,16.83
2022-10-03T17:26:33.151Z,16.67
2022-10-03T17:29:11.161Z,16.72
2022-10-03T17:32:05.853Z,16.62
2022-10-03T17:34:41.258Z,16.42
2022-10-03T17:37:20.822Z,16.40
2022-10-03T17:39:59.315Z,16.34
2022-10-03T17:42:32.169Z,16.54
2022-10-03T17:45:26.648Z,16.54
2022-10-03T17:48:25.071Z,16.38
2022-10-03T17:51:21.751Z,16.39
2022-10-03T17:53:57.688Z,16.34
2022-10-03T17:56:30.056Z,16.26
2022-10-03T17:59:02.902Z,16.15
2022-10-03T18:01:38.918Z,16.16
2022-10-03T18:04:10.678Z,16.18
2022-10-03T18:06:52.056Z,16.13
2022-10-03T18:09:41.545Z,16.32
2022-10-03T18:12:20.480Z,16.16
2022-10-03T18:15:16.095Z,15.95
2022-10-03T18:18:08.137Z,15.99
2022-10-03T18:20:52.510Z,15.96
2022-10-03T18:23:50.071Z,15.99
2022-10-03T18:26:20.900Z,15.61
2022-10-03T18:28:45.361Z,15.59
2022-10-03T18:31:23.415Z,15.73
2022-10-03T18:34:13.872Z,15.66
2022-10-03T18:36:48.474Z,15.74
2022-10-03T18:39:21.123Z,15.49
2022-10-03T18:41:53.980Z,15.64
2022-10-03T18:44:27.029Z,15.56
2022-10-03T18:47:07.077Z,15.64
2022-10-03T18:49:40.136Z,15.54
2022-10-03T18:52:22.998Z,15.55
2022-10-03T18:55:04.240Z,15.54
2022-10-03T18:58:00.243Z,15.49
2022-10-03T19:00:33.873Z,15.38
2022-10-03T19:03:06.716Z,15.38
2022-10-03T19:05:51.311Z,15.20
2022-10-03T19:08:29.849Z,15.19
2022-10-03T19:11:32.636Z,15.32
2022-10-03T19:14:11.101Z,15.31
2022-10-03T19:17:16.616Z,15.31
2022-10-03T19:19:58.778Z,15.25
2022-10-03T19:22:32.344Z,14.91
2022-10-03T19:25:04.822Z,15.03
2022-10-03T19:27:43.535Z,15.01
2022-10-03T19:30:24.231Z,15.12
2022-10-03T19:33:02.453Z,14.98
2022-10-03T19:35:33.174Z,15.14
2022-10-03T19:38:17.377Z,14.97
2022-10-03T19:41:04.930Z,14.76
2022-10-03T19:43:50.959Z,14.62
2022-10-03T19:46:34.943Z,14.85
2022-10-03T19:49:19.627Z,15.08
2022-10-03T19:51:50.309Z,15.09
2022-10-03T19:54:32.006Z,14.89
2022-10-03T19:57:05.647Z,14.88
2022-10-03T19:59:46.823Z,15.04
2022-10-03T20:02:18.189Z,15.07
2022-10-03T20:04:51.262Z,15.03
2022-10-03T20:07:29.564Z,15.00
2022-10-03T20:10:02.705Z,14.93
2022-10-03T20:12:34.211Z,14.89
2022-10-03T20:15:06.993Z,14.87
2022-10-03T20:17:38.766Z,15.01
2022-10-03T20:20:13.183Z,14.96
2022-10-03T20:22:43.102Z,14.97
2022-10-03T20:25:30.518Z,14.87
2022-10-03T20:28:02.489Z,14.86
2022-10-03T20:30:52.627Z,14.96
2022-10-03T20:33:25.437Z,14.96
2022-10-03T20:36:07.215Z,14.67
2022-10-03T20:38:51.742Z,14.83
2022-10-03T20:41:32.582Z,14.90
2022-10-03T20:44:08.249Z,14.86
2022-10-03T20:46:50.163Z,14.91
2022-10-03T20:49:25.959Z,14.87
2022-10-03T20:52:01.079Z,14.95
2022-10-03T20:54:39.447Z,14.91
2022-10-03T20:57:29.813Z,14.91
2022-10-03T21:00:20.618Z,14.84
2022-10-03T21:02:56.103Z,14.84
2022-10-03T21:05:28.784Z,14.65
2022-10-03T21:08:07.150Z,14.81
2022-10-03T21:10:40.288Z,14.78
2022-10-03T21:13:15.969Z,14.58
2022-10-03T21:15:58.024Z,14.57
2022-10-03T21:18:33.615Z,14.89
2022-10-03T21:21:15.051Z,14.58
2022-10-03T21:24:08.667Z,14.58
2022-10-03T21:26:46.817Z,14.56
2022-10-03T21:29:19.854Z,14.59
2022-10-03T21:32:04.710Z,14.61
2022-10-03T21:34:51.952Z,14.62
2022-10-03T21:37:40.675Z,14.59
2022-10-03T21:40:22.090Z,14.57
2022-10-03T21:42:55.030Z,14.51
2022-10-03T21:45:42.404Z,14.40
2022-10-03T21:48:19.658Z,14.26
2022-10-03T21:50:55.581Z,14.29
2022-10-03T21:53:47.641Z,14.47
2022-10-03T21:56:22.570Z,14.28
2022-10-03T21:59:01.016Z,14.44
2022-10-03T22:01:34.113Z,14.42
2022-10-03T22:04:12.653Z,14.51
2022-10-03T22:09:33.390Z,14.14
2022-10-03T22:12:06.161Z,14.21
2022-10-03T22:14:42.050Z,14.12
2022-10-03T22:17:20.457Z,14.12
2022-10-03T22:19:54.973Z,14.28
2022-10-03T22:22:42.452Z,14.01
2022-10-03T22:25:48.073Z,14.02
2022-10-03T22:28:26.581Z,14.07
2022-10-03T22:31:11.300Z,13.90
2022-10-03T22:33:46.515Z,14.01
2022-10-03T22:36:19.572Z,13.92
2022-10-03T22:38:52.428Z,13.98
2022-10-03T22:41:25.223Z,14.07
2022-10-03T22:43:57.728Z,14.05
2022-10-03T22:46:30.512Z,13.81
2022-10-03T22:49:18.165Z,13.81
2022-10-03T22:51:50.493Z,14.11
2022-10-03T22:54:20.311Z,13.97
2022-10-03T22:56:55.583Z,14.34
2022-10-03T22:59:33.781Z,14.31
2022-10-03T23:02:06.167Z,14.23
2022-10-03T23:04:47.796Z,14.31
2022-10-03T23:07:26.811Z,14.08
2022-10-03T23:10:02.438Z,14.19
2022-10-03T23:12:35.090Z,13.99
2022-10-03T23:15:07.691Z,14.05
2022-10-03T23:17:55.437Z,14.17
2022-10-03T23:20:47.128Z,14.10
2022-10-03T23:23:26.292Z,14.02
2022-10-03T23:26:32.080Z,14.09
2022-10-03T23:29:13.872Z,14.09
2022-10-03T23:32:04.475Z,14.05
2022-10-03T23:34:37.558Z,13.92
2022-10-03T23:37:16.326Z,13.90
2022-10-03T23:39:57.902Z,13.79
2022-10-03T23:42:43.074Z,14.05
2022-10-03T23:45:21.129Z,14.01
2022-10-03T23:48:10.047Z,14.09
2022-10-03T23:50:51.254Z,13.92
2022-10-03T23:53:27.371Z,13.89
2022-10-03T23:55:59.735Z,13.89
2022-10-03T23:58:32.310Z,14.16
